D/T METAR WX W/DIR W/SPE G/SPE TEMP DEWP
12/07/20 16:00 EIDL 121500Z 18021KT 9999 OVC021 16/12 Q1021 S (180°) 24.2mph 16°C 12°C
12/07/20 15:30 EIDL 121430Z 18016KT 9999 FEW017 OVC021 16/12 Q1022 S (180°) 18.4mph 16°C 12°C
12/07/20 15:00 EIDL 121400Z 18016KT 6000 DZ OVC021 14/12 Q1022 DZ S (180°) 18.4mph 14°C 12°C
12/07/20 14:30 EIDL 121330Z 18017KT 9999 OVC021 14/12 Q1022 S (180°) 19.6mph 14°C 12°C
12/07/20 14:00 EIDL 121300Z 18017KT 9999 -RA BKN023 OVC036 14/12 Q1022 -RA S (180°) 19.6mph 14°C 12°C
12/07/20 13:30 EIDL 121230Z 18015KT 3100 -RA FEW011 OVC036 13/12 Q1023 -RA S (180°) 17.3mph 13°C 12°C
12/07/20 13:00 EIDL 121200Z 19016KT 9999 OVC026 15/10 Q1023 S (190°) 18.4mph 15°C 10°C
12/07/20 12:30 EIDL 121130Z 19016KT 9999 OVC028 15/10 Q1023 S (190°) 18.4mph 15°C 10°C
12/07/20 11:30 EIDL 121030Z 19014KT 9999 SCT036 15/10 Q1023 S (190°) 16.1mph 15°C 10°C
12/07/20 11:00 EIDL 121000Z 20014KT CAVOK 15/10 Q1024 SSW (200°) 16.1mph 15°C 10°C
12/07/20 10:30 EIDL 120930Z 20013KT CAVOK 15/10 Q1024 SSW (200°) 15.0mph 15°C 10°C
12/07/20 10:00 EIDL 120900Z 20012KT CAVOK 15/10 Q1024 SSW (200°) 13.8mph 15°C 10°C
11/07/20 19:30 EIDL 111830Z 29008KT 9999 BKN029 OVC034 14/09 Q1027 WNW (290°) 9.2mph 14°C 9°C
11/07/20 19:00 EIDL 111800Z 28007KT 9999 BKN033 14/09 Q1027 W (280°) 8.1mph 14°C 9°C
11/07/20 18:30 EIDL 111730Z 28009KT 9999 BKN031 14/09 Q1027 W (280°) 10.4mph 14°C 9°C
11/07/20 18:00 EIDL 111700Z 27009KT 9999 BKN033 14/09 Q1028 W (270°) 10.4mph 14°C 9°C
11/07/20 17:30 EIDL 111630Z 28009KT 9999 BKN032 14/09 Q1027 W (280°) 10.4mph 14°C 9°C
11/07/20 16:30 EIDL 111530Z 28008KT 9999 OVC042 15/09 Q1028 W (280°) 9.2mph 15°C 9°C
11/07/20 16:00 EIDL 111500Z 26010KT 9999 FEW026 SCT035 OVC041 14/09 Q1028 W (260°) 11.5mph 14°C 9°C
11/07/20 15:30 EIDL 111430Z 24009KT 9999 FEW026 OVC037 14/09 Q1028 WSW (240°) 10.4mph 14°C 9°C
11/07/20 15:00 EIDL 111400Z 28010KT 9999 OVC040 14/09 Q1028 W (280°) 11.5mph 14°C 9°C
11/07/20 14:30 EIDL 111330Z 27009KT 9999 OVC039 15/09 Q1028 W (270°) 10.4mph 15°C 9°C
11/07/20 14:00 EIDL 111300Z 28010KT 9999 OVC040 14/09 Q1028 W (280°) 11.5mph 14°C 9°C
11/07/20 13:30 EIDL 111230Z 27009KT 9999 OVC041 14/09 Q1028 W (270°) 10.4mph 14°C 9°C
11/07/20 13:00 EIDL 111200Z 28008KT 9999 OVC036 14/09 Q1028 W (280°) 9.2mph 14°C 9°C
11/07/20 12:00 EIDL 111100Z 28010KT 9999 OVC038 14/09 Q1027 W (280°) 11.5mph 14°C 9°C
11/07/20 11:30 EIDL 111030Z 27010KT 9999 OVC038 14/09 Q1027 W (270°) 11.5mph 14°C 9°C
11/07/20 11:00 EIDL 111000Z 29008KT 9999 FEW029 OVC033 14/09 Q1027 WNW (290°) 9.2mph 14°C 9°C
11/07/20 10:30 EIDL 110930Z 30005KT 9999 BKN027 OVC036 13/08 Q1027 WNW (300°) 5.8mph 13°C 8°C
11/07/20 10:00 EIDL 110900Z 31007KT 9999 OVC040 13/08 Q1027 NW (310°) 8.1mph 13°C 8°C
11/07/20 09:30 EIDL 110830Z 31011KT 9999 FEW030 OVC037 12/08 Q1027 NW (310°) 12.7mph 12°C 8°C
11/07/20 09:00 EIDL 110800Z 30012KT 9999 OVC037 13/08 Q1026 WNW (300°) 13.8mph 13°C 8°C
11/07/20 08:30 EIDL 110730Z 30010KT 9999 OVC041 13/08 Q1026 WNW (300°) 11.5mph 13°C 8°C
11/07/20 08:00 EIDL 110700Z 29011KT 9999 OVC041 13/08 Q1026 WNW (290°) 12.7mph 13°C 8°C
10/07/20 19:30 EIDL 101830Z 31011KT 9999 FEW040 13/09 Q1024 NW (310°) 12.7mph 13°C 9°C
10/07/20 19:00 EIDL 101800Z 32012KT CAVOK 14/09 Q1024 NW (320°) 13.8mph 14°C 9°C
10/07/20 18:30 EIDL 101730Z 31012KT 9999 FEW020 14/09 Q1024 NW (310°) 13.8mph 14°C 9°C
10/07/20 17:30 EIDL 101630Z 31012KT 9999 FEW022 14/10 Q1024 NW (310°) 13.8mph 14°C 10°C
10/07/20 17:00 EIDL 101600Z 32011KT CAVOK 14/10 Q1023 NW (320°) 12.7mph 14°C 10°C
10/07/20 16:30 EIDL 101530Z 32011KT 9999 FEW033 13/11 Q1023 RERA NW (320°) 12.7mph 13°C 11°C
10/07/20 16:00 EIDL 101500Z 32014G25KT 9999 FEW022 SCT030 14/09 Q1023 NW (320°) 16.1mph 28.8mph 14°C 9°C
10/07/20 15:30 EIDL 101430Z 32013KT 9999 FEW023 15/10 Q1023 NW (320°) 15.0mph 15°C 10°C
10/07/20 15:00 EIDL 101400Z 30012KT 9999 FEW022 14/09 Q1023 WNW (300°) 13.8mph 14°C 9°C
10/07/20 14:30 EIDL 101330Z 29011KT 9999 FEW037 14/09 Q1023 WNW (290°) 12.7mph 14°C 9°C
10/07/20 14:00 EIDL 101300Z 31012KT 9999 SCT023 SCT044 14/10 Q1023 NW (310°) 13.8mph 14°C 10°C
10/07/20 13:30 EIDL 101230Z 33014KT 9999 SCT018 15/10 Q1022 NNW (330°) 16.1mph 15°C 10°C
10/07/20 13:00 EIDL 101200Z 30012KT 9999 FEW013 14/10 Q1022 WNW (300°) 13.8mph 14°C 10°C
10/07/20 12:30 EIDL 101130Z 30013KT 9999 FEW013 14/10 Q1022 WNW (300°) 15.0mph 14°C 10°C
10/07/20 12:00 EIDL 101100Z 30012KT 9999 FEW014 14/10 Q1022 WNW (300°) 13.8mph 14°C 10°C
10/07/20 11:30 EIDL 101030Z 30012KT 9999 SCT016 14/09 Q1022 WNW (300°) 13.8mph 14°C 9°C
10/07/20 11:00 EIDL 101000Z 29011KT 9999 FEW020 14/10 Q1021 WNW (290°) 12.7mph 14°C 10°C
10/07/20 10:30 EIDL 100930Z 30013KT CAVOK 12/08 Q1021 WNW (300°) 15.0mph 12°C 8°C
10/07/20 10:00 EIDL 100900Z 30014KT 9999 FEW021 13/08 Q1021 WNW (300°) 16.1mph 13°C 8°C
10/07/20 09:30 EIDL 100830Z 31014KT CAVOK 13/08 Q1021 NW (310°) 16.1mph 13°C 8°C
10/07/20 09:00 EIDL 100800Z 31014KT 9999 SCT021 13/08 Q1021 NW (310°) 16.1mph 13°C 8°C
10/07/20 08:30 EIDL 100730Z 31013KT 9999 FEW021 13/08 Q1021 NW (310°) 15.0mph 13°C 8°C
10/07/20 08:00 EIDL 100700Z 32015KT 9999 FEW045 12/08 Q1020 NW (320°) 17.3mph 12°C 8°C
9/07/20 19:00 EIDL 091800Z 34012KT 9999 FEW024 13/08 Q1018 NNW (340°) 13.8mph 13°C 8°C
9/07/20 18:30 EIDL 091730Z 33010KT CAVOK 14/09 Q1018 NNW (330°) 11.5mph 14°C 9°C
9/07/20 18:00 EIDL 091700Z 33011KT CAVOK 14/09 Q1018 NNW (330°) 12.7mph 14°C 9°C
9/07/20 17:30 EIDL 091630Z 33012KT CAVOK 14/09 Q1018 NNW (330°) 13.8mph 14°C 9°C
9/07/20 16:00 EIDL 091500Z 33012KT 9999 FEW023 15/09 Q1018 NNW (330°) 13.8mph 15°C 9°C
9/07/20 15:30 EIDL 091430Z 34010KT 9999 FEW024 BKN036 BKN049 14/09 Q1018 NNW (340°) 11.5mph 14°C 9°C
9/07/20 15:00 EIDL 091400Z 35008KT 320V020 9999 FEW028 15/09 Q1018 N (350°) 9.2mph 15°C 9°C
9/07/20 14:30 EIDL 091330Z 36009KT 9999 SCT027 15/10 Q1017 N (360°) 10.4mph 15°C 10°C
9/07/20 14:00 EIDL 091300Z 35010KT 9999 SCT026 OVC048 15/10 Q1017 N (350°) 11.5mph 15°C 10°C
9/07/20 13:30 EIDL 091230Z 36011KT 9999 FEW029 BKN037 OVC046 14/09 Q1017 N (360°) 12.7mph 14°C 9°C
9/07/20 13:00 EIDL 091200Z 35011KT 9999 FEW023 OVC035 14/08 Q1017 N (350°) 12.7mph 14°C 8°C
9/07/20 12:30 EIDL 091130Z 36013KT 9999 FEW022 BKN033 BKN043 14/09 Q1017 N (360°) 15.0mph 14°C 9°C
9/07/20 11:00 EIDL 091000Z 36009KT 9999 FEW042 14/09 Q1017 N (360°) 10.4mph 14°C 9°C
9/07/20 10:30 EIDL 090930Z 01008KT CAVOK 14/09 Q1017 N (10°) 9.2mph 14°C 9°C
9/07/20 10:00 EIDL 090900Z 02009KT CAVOK 14/09 Q1016 NNE (20°) 10.4mph 14°C 9°C
9/07/20 09:30 EIDL 090830Z 01011KT CAVOK 14/09 Q1016 N (10°) 12.7mph 14°C 9°C
9/07/20 09:00 EIDL 090800Z 01011KT CAVOK 13/09 Q1016 N (10°) 12.7mph 13°C 9°C
9/07/20 08:30 EIDL 090730Z 02011KT CAVOK 13/08 Q1016 NNE (20°) 12.7mph 13°C 8°C
9/07/20 08:00 EIDL 090700Z 02011KT CAVOK 13/08 Q1016 NNE (20°) 12.7mph 13°C 8°C
8/07/20 19:00 EIDL 081800Z 05010KT 9999 SCT025 BKN037 14/11 Q1013 NE (50°) 11.5mph 14°C 11°C
8/07/20 18:30 EIDL 081730Z 05010KT 9999 SCT025 BKN037 14/11 Q1013 NE (50°) 11.5mph 14°C 11°C
8/07/20 18:00 EIDL 081700Z 06011KT 9999 FEW038 15/11 Q1013 ENE (60°) 12.7mph 15°C 11°C
8/07/20 17:30 EIDL 081630Z 06012KT 9999 FEW038 14/11 Q1013 ENE (60°) 13.8mph 14°C 11°C
8/07/20 16:00 EIDL 081500Z 05010KT 9999 BKN037 OVC048 14/09 Q1014 NE (50°) 11.5mph 14°C 9°C
8/07/20 15:30 EIDL 081430Z 05010KT 9999 FEW045 14/10 Q1014 NE (50°) 11.5mph 14°C 10°C
8/07/20 15:00 EIDL 081400Z 06011KT CAVOK 14/10 Q1014 ENE (60°) 12.7mph 14°C 10°C
8/07/20 14:30 EIDL 081330Z 04011KT 9999 FEW034 14/10 Q1015 NE (40°) 12.7mph 14°C 10°C
8/07/20 14:00 EIDL 081300Z 04010KT 9999 FEW035 14/10 Q1015 NE (40°) 11.5mph 14°C 10°C
8/07/20 13:30 EIDL 081230Z 04011KT 9999 SCT034 14/09 Q1015 NE (40°) 12.7mph 14°C 9°C
8/07/20 13:00 EIDL 081200Z 05010KT 9999 FEW034 14/09 Q1014 NE (50°) 11.5mph 14°C 9°C
8/07/20 12:30 EIDL 081130Z 08007KT 050V110 9999 SCT028 SCT046 15/10 Q1015 E (80°) 8.1mph 15°C 10°C
8/07/20 12:00 EIDL 081100Z 07007KT 040V100 9999 FEW029 15/10 Q1015 ENE (70°) 8.1mph 15°C 10°C
8/07/20 11:30 EIDL 081030Z 05009KT 9999 FEW026 14/09 Q1015 NE (50°) 10.4mph 14°C 9°C
8/07/20 11:00 EIDL 081000Z 05008KT 030V090 9999 SCT026 15/10 Q1015 NE (50°) 9.2mph 15°C 10°C
8/07/20 10:30 EIDL 080930Z 08007KT 050V110 9999 FEW023 15/10 Q1015 E (80°) 8.1mph 15°C 10°C
8/07/20 10:00 EIDL 080900Z 09008KT CAVOK 14/09 Q1015 E (90°) 9.2mph 14°C 9°C
8/07/20 09:30 EIDL 080830Z 09005KT CAVOK 14/09 Q1015 E (90°) 5.8mph 14°C 9°C
8/07/20 09:00 EIDL 080800Z 09005KT CAVOK 13/09 Q1015 E (90°) 5.8mph 13°C 9°C
8/07/20 08:30 EIDL 080730Z 08005KT CAVOK 12/09 Q1015 E (80°) 5.8mph 12°C 9°C